sensor_id;sensor_type;location;lat;lon;timestamp;P1;durP1;ratioP1;P2;durP2;ratioP2
36827;SDS011;22766;48.042;11.192;2023-04-03T00:00:35;5.10;;;2.85;;
36827;SDS011;22766;48.042;11.192;2023-04-03T00:03:02;5.13;;;3.08;;
36827;SDS011;22766;48.042;11.192;2023-04-03T00:05:29;5.40;;;3.30;;
36827;SDS011;22766;48.042;11.192;2023-04-03T00:07:56;5.43;;;3.05;;
36827;SDS011;22766;48.042;11.192;2023-04-03T00:10:22;4.55;;;3.15;;
36827;SDS011;22766;48.042;11.192;2023-04-03T00:12:49;4.63;;;2.80;;
36827;SDS011;22766;48.042;11.192;2023-04-03T00:15:16;5.95;;;2.67;;
36827;SDS011;22766;48.042;11.192;2023-04-03T00:17:43;6.63;;;3.83;;
36827;SDS011;22766;48.042;11.192;2023-04-03T00:20:10;7.50;;;3.92;;
36827;SDS011;22766;48.042;11.192;2023-04-03T00:22:37;5.35;;;2.58;;
36827;SDS011;22766;48.042;11.192;2023-04-03T00:25:03;6.65;;;3.15;;
36827;SDS011;22766;48.042;11.192;2023-04-03T00:27:30;6.07;;;3.45;;
36827;SDS011;22766;48.042;11.192;2023-04-03T00:29:57;5.90;;;2.80;;
36827;SDS011;22766;48.042;11.192;2023-04-03T00:32:24;11.57;;;4.05;;
36827;SDS011;22766;48.042;11.192;2023-04-03T00:34:51;6.03;;;3.35;;
36827;SDS011;22766;48.042;11.192;2023-04-03T00:37:17;4.25;;;2.70;;
36827;SDS011;22766;48.042;11.192;2023-04-03T00:39:44;5.80;;;3.35;;
36827;SDS011;22766;48.042;11.192;2023-04-03T00:42:11;7.97;;;3.85;;
36827;SDS011;22766;48.042;11.192;2023-04-03T00:47:06;5.38;;;3.25;;
36827;SDS011;22766;48.042;11.192;2023-04-03T00:49:35;4.72;;;3.13;;
36827;SDS011;22766;48.042;11.192;2023-04-03T00:52:05;5.68;;;3.35;;
36827;SDS011;22766;48.042;11.192;2023-04-03T00:54:35;7.75;;;3.25;;
36827;SDS011;22766;48.042;11.192;2023-04-03T00:57:02;5.80;;;3.53;;
36827;SDS011;22766;48.042;11.192;2023-04-03T00:59:32;8.00;;;3.15;;
36827;SDS011;22766;48.042;11.192;2023-04-03T01:02:02;6.05;;;2.95;;
36827;SDS011;22766;48.042;11.192;2023-04-03T01:07:02;4.80;;;2.92;;
36827;SDS011;22766;48.042;11.192;2023-04-03T01:09:44;6.90;;;3.35;;
36827;SDS011;22766;48.042;11.192;2023-04-03T01:12:21;5.93;;;2.88;;
36827;SDS011;22766;48.042;11.192;2023-04-03T01:14:54;3.53;;;2.30;;
36827;SDS011;22766;48.042;11.192;2023-04-03T01:30:43;5.10;;;2.40;;
36827;SDS011;22766;48.042;11.192;2023-04-03T01:33:15;4.72;;;2.78;;
36827;SDS011;22766;48.042;11.192;2023-04-03T01:35:43;4.93;;;2.60;;
36827;SDS011;22766;48.042;11.192;2023-04-03T01:38:10;5.88;;;3.35;;
36827;SDS011;22766;48.042;11.192;2023-04-03T01:40:37;8.05;;;2.88;;
36827;SDS011;22766;48.042;11.192;2023-04-03T01:43:04;6.13;;;3.13;;
36827;SDS011;22766;48.042;11.192;2023-04-03T01:45:31;4.50;;;2.63;;
36827;SDS011;22766;48.042;11.192;2023-04-03T01:47:58;12.80;;;3.45;;
36827;SDS011;22766;48.042;11.192;2023-04-03T01:50:25;3.95;;;2.70;;
36827;SDS011;22766;48.042;11.192;2023-04-03T01:52:52;4.72;;;2.88;;
36827;SDS011;22766;48.042;11.192;2023-04-03T01:55:18;5.35;;;2.67;;
36827;SDS011;22766;48.042;11.192;2023-04-03T01:57:45;7.20;;;2.75;;
36827;SDS011;22766;48.042;11.192;2023-04-03T02:00:12;4.57;;;2.63;;
36827;SDS011;22766;48.042;11.192;2023-04-03T02:02:40;4.22;;;2.15;;
36827;SDS011;22766;48.042;11.192;2023-04-03T02:05:07;4.38;;;2.60;;
36827;SDS011;22766;48.042;11.192;2023-04-03T02:07:34;5.65;;;2.55;;
36827;SDS011;22766;48.042;11.192;2023-04-03T02:10:01;10.23;;;3.13;;
36827;SDS011;22766;48.042;11.192;2023-04-03T02:12:28;5.18;;;2.90;;
36827;SDS011;22766;48.042;11.192;2023-04-03T02:14:55;3.47;;;2.70;;
36827;SDS011;22766;48.042;11.192;2023-04-03T02:17:21;4.85;;;2.33;;
36827;SDS011;22766;48.042;11.192;2023-04-03T02:19:48;3.28;;;2.33;;
36827;SDS011;22766;48.042;11.192;2023-04-03T02:22:15;4.45;;;2.08;;
36827;SDS011;22766;48.042;11.192;2023-04-03T02:24:42;3.80;;;2.38;;
36827;SDS011;22766;48.042;11.192;2023-04-03T02:27:11;3.63;;;2.33;;
36827;SDS011;22766;48.042;11.192;2023-04-03T02:29:38;5.40;;;2.47;;
36827;SDS011;22766;48.042;11.192;2023-04-03T02:32:05;3.92;;;2.40;;
36827;SDS011;22766;48.042;11.192;2023-04-03T02:34:32;3.10;;;2.20;;
36827;SDS011;22766;48.042;11.192;2023-04-03T02:37:00;3.70;;;2.40;;
36827;SDS011;22766;48.042;11.192;2023-04-03T02:39:27;3.70;;;2.60;;
36827;SDS011;22766;48.042;11.192;2023-04-03T02:41:57;3.28;;;1.92;;
36827;SDS011;22766;48.042;11.192;2023-04-03T02:44:24;3.38;;;2.38;;
36827;SDS011;22766;48.042;11.192;2023-04-03T02:46:51;7.50;;;2.53;;
36827;SDS011;22766;48.042;11.192;2023-04-03T02:49:18;3.30;;;2.55;;
36827;SDS011;22766;48.042;11.192;2023-04-03T02:51:45;3.88;;;2.33;;
36827;SDS011;22766;48.042;11.192;2023-04-03T02:54:12;6.47;;;2.90;;
36827;SDS011;22766;48.042;11.192;2023-04-03T02:56:43;3.87;;;2.40;;
36827;SDS011;22766;48.042;11.192;2023-04-03T02:59:09;5.85;;;2.80;;
36827;SDS011;22766;48.042;11.192;2023-04-03T03:01:38;5.22;;;3.03;;
36827;SDS011;22766;48.042;11.192;2023-04-03T03:04:05;4.07;;;2.47;;
36827;SDS011;22766;48.042;11.192;2023-04-03T03:06:31;3.60;;;2.33;;
36827;SDS011;22766;48.042;11.192;2023-04-03T03:08:58;3.40;;;2.33;;
36827;SDS011;22766;48.042;11.192;2023-04-03T03:11:25;3.90;;;2.38;;
36827;SDS011;22766;48.042;11.192;2023-04-03T03:13:52;5.90;;;2.70;;
36827;SDS011;22766;48.042;11.192;2023-04-03T03:16:19;4.55;;;2.60;;
36827;SDS011;22766;48.042;11.192;2023-04-03T03:18:45;3.38;;;2.47;;
36827;SDS011;22766;48.042;11.192;2023-04-03T03:21:12;4.95;;;3.05;;
36827;SDS011;22766;48.042;11.192;2023-04-03T03:23:39;4.65;;;2.80;;
36827;SDS011;22766;48.042;11.192;2023-04-03T03:26:07;4.70;;;2.85;;
36827;SDS011;22766;48.042;11.192;2023-04-03T03:28:37;4.95;;;2.80;;
36827;SDS011;22766;48.042;11.192;2023-04-03T03:31:05;3.85;;;2.45;;
36827;SDS011;22766;48.042;11.192;2023-04-03T03:33:35;5.72;;;3.10;;
36827;SDS011;22766;48.042;11.192;2023-04-03T03:36:02;3.85;;;2.78;;
36827;SDS011;22766;48.042;11.192;2023-04-03T03:38:29;5.95;;;2.85;;
36827;SDS011;22766;48.042;11.192;2023-04-03T03:40:57;4.25;;;2.60;;
36827;SDS011;22766;48.042;11.192;2023-04-03T03:43:24;3.97;;;2.72;;
36827;SDS011;22766;48.042;11.192;2023-04-03T03:45:52;3.90;;;2.65;;
36827;SDS011;22766;48.042;11.192;2023-04-03T03:48:22;3.63;;;2.10;;
36827;SDS011;22766;48.042;11.192;2023-04-03T03:50:49;4.68;;;2.78;;
36827;SDS011;22766;48.042;11.192;2023-04-03T03:53:18;4.38;;;2.75;;
36827;SDS011;22766;48.042;11.192;2023-04-03T03:55:47;3.05;;;2.65;;
36827;SDS011;22766;48.042;11.192;2023-04-03T03:58:15;5.95;;;2.17;;
36827;SDS011;22766;48.042;11.192;2023-04-03T04:00:41;5.70;;;2.30;;
36827;SDS011;22766;48.042;11.192;2023-04-03T04:03:09;3.90;;;2.30;;
36827;SDS011;22766;48.042;11.192;2023-04-03T04:05:36;5.82;;;2.40;;
36827;SDS011;22766;48.042;11.192;2023-04-03T04:08:04;4.00;;;2.65;;
36827;SDS011;22766;48.042;11.192;2023-04-03T04:10:31;4.70;;;2.35;;
36827;SDS011;22766;48.042;11.192;2023-04-03T04:12:59;3.75;;;2.33;;
36827;SDS011;22766;48.042;11.192;2023-04-03T04:15:27;3.05;;;2.40;;
36827;SDS011;22766;48.042;11.192;2023-04-03T04:17:55;3.47;;;2.25;;
36827;SDS011;22766;48.042;11.192;2023-04-03T04:20:23;4.38;;;2.67;;
36827;SDS011;22766;48.042;11.192;2023-04-03T04:22:50;3.33;;;2.60;;
36827;SDS011;22766;48.042;11.192;2023-04-03T04:25:18;2.67;;;2.13;;
36827;SDS011;22766;48.042;11.192;2023-04-03T04:27:45;7.40;;;2.00;;
36827;SDS011;22766;48.042;11.192;2023-04-03T04:30:14;6.45;;;2.60;;
36827;SDS011;22766;48.042;11.192;2023-04-03T04:32:43;4.40;;;2.17;;
36827;SDS011;22766;48.042;11.192;2023-04-03T04:35:10;3.20;;;2.30;;
36827;SDS011;22766;48.042;11.192;2023-04-03T04:37:42;4.15;;;2.30;;
36827;SDS011;22766;48.042;11.192;2023-04-03T04:40:10;4.25;;;2.22;;
36827;SDS011;22766;48.042;11.192;2023-04-03T04:42:37;2.88;;;2.10;;
36827;SDS011;22766;48.042;11.192;2023-04-03T04:45:04;10.60;;;2.08;;
36827;SDS011;22766;48.042;11.192;2023-04-03T04:47:31;4.38;;;2.35;;
36827;SDS011;22766;48.042;11.192;2023-04-03T04:49:59;4.00;;;2.60;;
36827;SDS011;22766;48.042;11.192;2023-04-03T04:52:26;3.25;;;2.25;;
36827;SDS011;22766;48.042;11.192;2023-04-03T04:54:53;3.45;;;2.03;;
36827;SDS011;22766;48.042;11.192;2023-04-03T04:57:19;4.05;;;2.25;;
36827;SDS011;22766;48.042;11.192;2023-04-03T04:59:46;3.83;;;2.20;;
36827;SDS011;22766;48.042;11.192;2023-04-03T05:02:13;5.07;;;2.15;;
36827;SDS011;22766;48.042;11.192;2023-04-03T05:04:42;3.85;;;2.20;;
36827;SDS011;22766;48.042;11.192;2023-04-03T05:07:15;3.28;;;2.10;;
36827;SDS011;22766;48.042;11.192;2023-04-03T05:09:42;3.88;;;2.50;;
36827;SDS011;22766;48.042;11.192;2023-04-03T05:12:11;6.55;;;2.75;;
36827;SDS011;22766;48.042;11.192;2023-04-03T05:14:43;3.72;;;2.42;;
36827;SDS011;22766;48.042;11.192;2023-04-03T05:17:10;7.88;;;2.72;;
36827;SDS011;22766;48.042;11.192;2023-04-03T05:19:41;3.38;;;1.98;;
36827;SDS011;22766;48.042;11.192;2023-04-03T05:22:09;3.50;;;2.25;;
36827;SDS011;22766;48.042;11.192;2023-04-03T05:24:35;6.53;;;2.33;;
36827;SDS011;22766;48.042;11.192;2023-04-03T05:27:03;4.07;;;2.35;;
36827;SDS011;22766;48.042;11.192;2023-04-03T05:29:33;4.30;;;2.90;;
36827;SDS011;22766;48.042;11.192;2023-04-03T05:32:01;8.35;;;2.72;;
36827;SDS011;22766;48.042;11.192;2023-04-03T05:34:27;3.85;;;2.30;;
36827;SDS011;22766;48.042;11.192;2023-04-03T05:36:55;5.28;;;2.95;;
36827;SDS011;22766;48.042;11.192;2023-04-03T05:39:22;6.65;;;2.80;;
36827;SDS011;22766;48.042;11.192;2023-04-03T05:41:50;5.38;;;2.40;;
36827;SDS011;22766;48.042;11.192;2023-04-03T05:44:17;6.63;;;2.80;;
36827;SDS011;22766;48.042;11.192;2023-04-03T05:46:45;2.80;;;2.00;;
36827;SDS011;22766;48.042;11.192;2023-04-03T05:49:12;4.40;;;2.15;;
36827;SDS011;22766;48.042;11.192;2023-04-03T05:51:39;2.63;;;2.17;;
36827;SDS011;22766;48.042;11.192;2023-04-03T05:54:19;3.53;;;2.03;;
36827;SDS011;22766;48.042;11.192;2023-04-03T05:56:52;4.85;;;2.83;;
36827;SDS011;22766;48.042;11.192;2023-04-03T05:59:20;3.92;;;2.17;;
36827;SDS011;22766;48.042;11.192;2023-04-03T06:01:49;4.07;;;2.20;;
36827;SDS011;22766;48.042;11.192;2023-04-03T06:04:17;5.75;;;2.78;;
36827;SDS011;22766;48.042;11.192;2023-04-03T06:06:55;4.30;;;2.67;;
36827;SDS011;22766;48.042;11.192;2023-04-03T06:09:26;6.32;;;2.50;;
36827;SDS011;22766;48.042;11.192;2023-04-03T06:11:55;4.55;;;2.65;;
36827;SDS011;22766;48.042;11.192;2023-04-03T06:14:26;5.53;;;2.00;;
36827;SDS011;22766;48.042;11.192;2023-04-03T06:16:53;5.68;;;2.45;;
36827;SDS011;22766;48.042;11.192;2023-04-03T06:19:21;5.47;;;2.97;;
36827;SDS011;22766;48.042;11.192;2023-04-03T06:21:51;5.18;;;2.30;;
36827;SDS011;22766;48.042;11.192;2023-04-03T06:24:18;5.03;;;2.53;;
36827;SDS011;22766;48.042;11.192;2023-04-03T06:26:48;5.03;;;2.35;;
36827;SDS011;22766;48.042;11.192;2023-04-03T06:29:16;4.65;;;2.47;;
36827;SDS011;22766;48.042;11.192;2023-04-03T06:31:42;5.97;;;2.08;;
36827;SDS011;22766;48.042;11.192;2023-04-03T06:34:10;5.10;;;2.45;;
36827;SDS011;22766;48.042;11.192;2023-04-03T06:36:38;3.30;;;2.40;;
36827;SDS011;22766;48.042;11.192;2023-04-03T06:39:05;2.95;;;2.10;;
36827;SDS011;22766;48.042;11.192;2023-04-03T06:41:33;5.38;;;1.83;;
36827;SDS011;22766;48.042;11.192;2023-04-03T06:44:02;6.22;;;2.40;;
36827;SDS011;22766;48.042;11.192;2023-04-03T06:46:29;2.75;;;2.00;;
36827;SDS011;22766;48.042;11.192;2023-04-03T06:48:56;4.70;;;2.20;;
36827;SDS011;22766;48.042;11.192;2023-04-03T06:51:27;3.55;;;2.00;;
36827;SDS011;22766;48.042;11.192;2023-04-03T06:53:57;3.17;;;2.05;;
36827;SDS011;22766;48.042;11.192;2023-04-03T06:56:25;3.20;;;2.10;;
36827;SDS011;22766;48.042;11.192;2023-04-03T06:58:53;4.20;;;1.98;;
36827;SDS011;22766;48.042;11.192;2023-04-03T07:01:21;4.60;;;2.20;;
36827;SDS011;22766;48.042;11.192;2023-04-03T07:03:48;4.50;;;2.25;;
36827;SDS011;22766;48.042;11.192;2023-04-03T07:06:16;4.18;;;2.25;;
36827;SDS011;22766;48.042;11.192;2023-04-03T07:08:43;2.90;;;2.40;;
36827;SDS011;22766;48.042;11.192;2023-04-03T07:11:12;3.35;;;2.30;;
36827;SDS011;22766;48.042;11.192;2023-04-03T07:13:39;5.13;;;1.95;;
36827;SDS011;22766;48.042;11.192;2023-04-03T07:16:07;3.38;;;2.13;;
36827;SDS011;22766;48.042;11.192;2023-04-03T07:18:34;3.65;;;2.20;;
36827;SDS011;22766;48.042;11.192;2023-04-03T07:21:02;3.92;;;2.20;;
36827;SDS011;22766;48.042;11.192;2023-04-03T07:23:29;5.90;;;2.20;;
36827;SDS011;22766;48.042;11.192;2023-04-03T07:25:57;2.58;;;1.92;;
36827;SDS011;22766;48.042;11.192;2023-04-03T07:28:24;2.97;;;2.10;;
36827;SDS011;22766;48.042;11.192;2023-04-03T07:30:52;4.10;;;2.53;;
36827;SDS011;22766;48.042;11.192;2023-04-03T07:33:23;4.13;;;2.67;;
36827;SDS011;22766;48.042;11.192;2023-04-03T07:35:50;4.65;;;2.65;;
36827;SDS011;22766;48.042;11.192;2023-04-03T07:38:16;3.92;;;2.53;;
36827;SDS011;22766;48.042;11.192;2023-04-03T07:40:45;4.53;;;2.50;;
36827;SDS011;22766;48.042;11.192;2023-04-03T07:45:44;5.03;;;1.80;;
36827;SDS011;22766;48.042;11.192;2023-04-03T07:48:11;3.80;;;2.03;;
36827;SDS011;22766;48.042;11.192;2023-04-03T07:50:41;3.92;;;2.45;;
36827;SDS011;22766;48.042;11.192;2023-04-03T07:53:08;3.83;;;2.25;;
36827;SDS011;22766;48.042;11.192;2023-04-03T07:55:36;4.35;;;2.05;;
36827;SDS011;22766;48.042;11.192;2023-04-03T07:58:09;3.63;;;2.83;;
36827;SDS011;22766;48.042;11.192;2023-04-03T08:00:37;6.38;;;2.50;;
36827;SDS011;22766;48.042;11.192;2023-04-03T08:03:04;6.18;;;2.92;;
36827;SDS011;22766;48.042;11.192;2023-04-03T08:05:36;4.47;;;1.98;;
36827;SDS011;22766;48.042;11.192;2023-04-03T08:08:05;3.25;;;1.98;;
36827;SDS011;22766;48.042;11.192;2023-04-03T08:10:33;7.07;;;2.60;;
36827;SDS011;22766;48.042;11.192;2023-04-03T08:13:01;3.42;;;2.08;;
36827;SDS011;22766;48.042;11.192;2023-04-03T08:15:29;3.53;;;2.10;;
36827;SDS011;22766;48.042;11.192;2023-04-03T08:17:57;3.42;;;2.00;;
36827;SDS011;22766;48.042;11.192;2023-04-03T08:20:24;3.25;;;2.05;;
36827;SDS011;22766;48.042;11.192;2023-04-03T08:22:51;3.33;;;2.08;;
36827;SDS011;22766;48.042;11.192;2023-04-03T08:25:19;3.30;;;1.92;;
36827;SDS011;22766;48.042;11.192;2023-04-03T08:27:45;3.95;;;2.20;;
36827;SDS011;22766;48.042;11.192;2023-04-03T08:30:13;4.22;;;2.00;;
36827;SDS011;22766;48.042;11.192;2023-04-03T08:32:40;6.47;;;2.17;;
36827;SDS011;22766;48.042;11.192;2023-04-03T08:35:08;3.10;;;1.95;;
36827;SDS011;22766;48.042;11.192;2023-04-03T08:37:36;2.40;;;1.90;;
36827;SDS011;22766;48.042;11.192;2023-04-03T08:40:04;2.97;;;1.80;;
36827;SDS011;22766;48.042;11.192;2023-04-03T08:45:10;4.07;;;2.38;;
36827;SDS011;22766;48.042;11.192;2023-04-03T08:47:56;2.45;;;2.00;;
36827;SDS011;22766;48.042;11.192;2023-04-03T08:50:43;5.03;;;2.10;;
36827;SDS011;22766;48.042;11.192;2023-04-03T08:53:14;4.03;;;2.22;;
36827;SDS011;22766;48.042;11.192;2023-04-03T08:55:48;2.72;;;1.98;;
36827;SDS011;22766;48.042;11.192;2023-04-03T08:58:23;3.80;;;1.70;;
36827;SDS011;22766;48.042;11.192;2023-04-03T09:03:53;3.63;;;1.95;;
36827;SDS011;22766;48.042;11.192;2023-04-03T09:06:20;8.50;;;2.60;;
36827;SDS011;22766;48.042;11.192;2023-04-03T09:08:51;4.57;;;2.00;;
36827;SDS011;22766;48.042;11.192;2023-04-03T09:21:44;5.15;;;2.10;;
36827;SDS011;22766;48.042;11.192;2023-04-03T09:24:12;4.07;;;3.00;;
36827;SDS011;22766;48.042;11.192;2023-04-03T09:29:22;3.67;;;1.88;;
36827;SDS011;22766;48.042;11.192;2023-04-03T09:31:57;2.83;;;2.08;;
36827;SDS011;22766;48.042;11.192;2023-04-03T09:34:28;2.97;;;2.03;;
36827;SDS011;22766;48.042;11.192;2023-04-03T09:37:00;3.15;;;1.88;;
36827;SDS011;22766;48.042;11.192;2023-04-03T09:39:48;2.58;;;1.80;;
36827;SDS011;22766;48.042;11.192;2023-04-03T09:44:53;6.85;;;2.15;;
36827;SDS011;22766;48.042;11.192;2023-04-03T09:50:18;4.63;;;2.15;;
36827;SDS011;22766;48.042;11.192;2023-04-03T09:52:41;2.63;;;2.20;;
36827;SDS011;22766;48.042;11.192;2023-04-03T09:55:13;3.10;;;2.00;;
36827;SDS011;22766;48.042;11.192;2023-04-03T09:57:44;3.33;;;2.13;;
36827;SDS011;22766;48.042;11.192;2023-04-03T10:00:22;6.28;;;2.10;;
36827;SDS011;22766;48.042;11.192;2023-04-03T10:03:03;3.80;;;2.53;;
36827;SDS011;22766;48.042;11.192;2023-04-03T10:17:02;2.63;;;1.90;;
36827;SDS011;22766;48.042;11.192;2023-04-03T10:27:18;2.05;;;1.27;;
36827;SDS011;22766;48.042;11.192;2023-04-03T10:43:36;1.70;;;0.95;;
36827;SDS011;22766;48.042;11.192;2023-04-03T10:51:45;3.05;;;1.80;;
36827;SDS011;22766;48.042;11.192;2023-04-03T10:57:04;3.17;;;1.40;;
36827;SDS011;22766;48.042;11.192;2023-04-03T10:59:43;2.60;;;1.63;;
36827;SDS011;22766;48.042;11.192;2023-04-03T11:04:42;5.78;;;2.03;;
36827;SDS011;22766;48.042;11.192;2023-04-03T11:07:18;3.75;;;1.90;;
36827;SDS011;22766;48.042;11.192;2023-04-03T11:09:54;2.35;;;1.73;;
36827;SDS011;22766;48.042;11.192;2023-04-03T11:12:44;3.17;;;1.73;;
36827;SDS011;22766;48.042;11.192;2023-04-03T11:15:17;3.92;;;1.52;;
36827;SDS011;22766;48.042;11.192;2023-04-03T11:20:40;4.93;;;1.98;;
36827;SDS011;22766;48.042;11.192;2023-04-03T11:23:26;3.27;;;2.10;;
36827;SDS011;22766;48.042;11.192;2023-04-03T11:26:15;2.90;;;1.60;;
36827;SDS011;22766;48.042;11.192;2023-04-03T11:28:44;5.97;;;1.90;;
36827;SDS011;22766;48.042;11.192;2023-04-03T11:31:19;2.78;;;1.58;;
36827;SDS011;22766;48.042;11.192;2023-04-03T11:34:24;3.03;;;1.95;;
36827;SDS011;22766;48.042;11.192;2023-04-03T11:37:03;2.60;;;1.80;;
36827;SDS011;22766;48.042;11.192;2023-04-03T11:39:54;3.40;;;2.00;;
36827;SDS011;22766;48.042;11.192;2023-04-03T11:42:37;3.75;;;2.22;;
36827;SDS011;22766;48.042;11.192;2023-04-03T11:53:02;3.58;;;1.85;;
36827;SDS011;22766;48.042;11.192;2023-04-03T12:04:05;2.30;;;1.75;;
36827;SDS011;22766;48.042;11.192;2023-04-03T12:24:03;3.15;;;1.38;;
36827;SDS011;22766;48.042;11.192;2023-04-03T12:31:53;5.90;;;2.90;;
36827;SDS011;22766;48.042;11.192;2023-04-03T12:45:28;3.25;;;1.85;;
36827;SDS011;22766;48.042;11.192;2023-04-03T12:48:30;3.33;;;1.52;;
36827;SDS011;22766;48.042;11.192;2023-04-03T12:50:59;4.93;;;1.95;;
36827;SDS011;22766;48.042;11.192;2023-04-03T12:53:29;3.85;;;1.20;;
36827;SDS011;22766;48.042;11.192;2023-04-03T12:58:54;6.85;;;1.10;;
36827;SDS011;22766;48.042;11.192;2023-04-03T13:01:24;2.38;;;1.27;;
36827;SDS011;22766;48.042;11.192;2023-04-03T13:03:52;1.63;;;0.98;;
36827;SDS011;22766;48.042;11.192;2023-04-03T13:06:29;1.02;;;0.93;;
36827;SDS011;22766;48.042;11.192;2023-04-03T13:08:59;2.65;;;0.95;;
36827;SDS011;22766;48.042;11.192;2023-04-03T13:11:30;4.10;;;1.27;;
36827;SDS011;22766;48.042;11.192;2023-04-03T13:14:02;1.40;;;1.13;;
36827;SDS011;22766;48.042;11.192;2023-04-03T13:16:33;2.28;;;1.40;;
36827;SDS011;22766;48.042;11.192;2023-04-03T13:19:00;2.03;;;1.25;;
36827;SDS011;22766;48.042;11.192;2023-04-03T13:21:28;3.58;;;1.27;;
36827;SDS011;22766;48.042;11.192;2023-04-03T13:23:57;2.10;;;1.13;;
36827;SDS011;22766;48.042;11.192;2023-04-03T13:26:40;3.90;;;2.53;;
36827;SDS011;22766;48.042;11.192;2023-04-03T13:29:18;7.43;;;2.20;;
36827;SDS011;22766;48.042;11.192;2023-04-03T13:31:57;7.90;;;1.50;;
36827;SDS011;22766;48.042;11.192;2023-04-03T13:34:26;3.95;;;1.92;;
36827;SDS011;22766;48.042;11.192;2023-04-03T13:37:03;3.28;;;1.45;;
36827;SDS011;22766;48.042;11.192;2023-04-03T13:39:32;5.25;;;1.70;;
36827;SDS011;22766;48.042;11.192;2023-04-03T13:42:02;1.80;;;1.10;;
36827;SDS011;22766;48.042;11.192;2023-04-03T13:44:42;1.67;;;1.00;;
36827;SDS011;22766;48.042;11.192;2023-04-03T13:49:39;8.23;;;2.42;;
36827;SDS011;22766;48.042;11.192;2023-04-03T13:54:51;4.50;;;2.05;;
36827;SDS011;22766;48.042;11.192;2023-04-03T13:57:20;2.20;;;1.45;;
36827;SDS011;22766;48.042;11.192;2023-04-03T13:59:47;2.80;;;1.30;;
36827;SDS011;22766;48.042;11.192;2023-04-03T14:02:17;1.83;;;1.02;;
36827;SDS011;22766;48.042;11.192;2023-04-03T14:04:51;2.47;;;1.10;;
36827;SDS011;22766;48.042;11.192;2023-04-03T14:07:24;3.80;;;1.40;;
36827;SDS011;22766;48.042;11.192;2023-04-03T14:09:51;1.83;;;0.80;;
36827;SDS011;22766;48.042;11.192;2023-04-03T14:15:27;2.47;;;1.08;;
36827;SDS011;22766;48.042;11.192;2023-04-03T14:17:54;3.60;;;1.42;;
36827;SDS011;22766;48.042;11.192;2023-04-03T14:20:23;2.28;;;1.20;;
36827;SDS011;22766;48.042;11.192;2023-04-03T14:22:52;2.70;;;0.70;;
36827;SDS011;22766;48.042;11.192;2023-04-03T14:25:20;1.23;;;0.93;;
36827;SDS011;22766;48.042;11.192;2023-04-03T14:27:50;1.95;;;0.90;;
36827;SDS011;22766;48.042;11.192;2023-04-03T14:30:23;2.60;;;1.17;;
36827;SDS011;22766;48.042;11.192;2023-04-03T14:32:53;2.13;;;0.90;;
36827;SDS011;22766;48.042;11.192;2023-04-03T14:35:21;0.95;;;0.70;;
36827;SDS011;22766;48.042;11.192;2023-04-03T14:37:48;1.85;;;1.10;;
36827;SDS011;22766;48.042;11.192;2023-04-03T14:40:18;2.17;;;0.70;;
36827;SDS011;22766;48.042;11.192;2023-04-03T14:42:47;1.30;;;0.80;;
36827;SDS011;22766;48.042;11.192;2023-04-03T14:45:15;1.33;;;0.68;;
36827;SDS011;22766;48.042;11.192;2023-04-03T14:47:46;2.00;;;1.08;;
36827;SDS011;22766;48.042;11.192;2023-04-03T14:50:17;2.53;;;1.15;;
36827;SDS011;22766;48.042;11.192;2023-04-03T14:52:50;2.08;;;0.80;;
36827;SDS011;22766;48.042;11.192;2023-04-03T14:55:20;1.52;;;0.82;;
36827;SDS011;22766;48.042;11.192;2023-04-03T14:57:49;3.92;;;0.82;;
36827;SDS011;22766;48.042;11.192;2023-04-03T15:00:16;2.03;;;0.90;;
36827;SDS011;22766;48.042;11.192;2023-04-03T15:02:45;2.13;;;1.05;;
36827;SDS011;22766;48.042;11.192;2023-04-03T15:05:14;4.82;;;0.85;;
36827;SDS011;22766;48.042;11.192;2023-04-03T15:07:43;4.07;;;1.08;;
36827;SDS011;22766;48.042;11.192;2023-04-03T15:10:15;0.80;;;0.70;;
36827;SDS011;22766;48.042;11.192;2023-04-03T15:12:44;1.05;;;0.90;;
36827;SDS011;22766;48.042;11.192;2023-04-03T15:15:12;3.25;;;1.30;;
36827;SDS011;22766;48.042;11.192;2023-04-03T15:17:39;2.03;;;0.93;;
36827;SDS011;22766;48.042;11.192;2023-04-03T15:20:14;3.80;;;1.45;;
36827;SDS011;22766;48.042;11.192;2023-04-03T15:22:43;1.92;;;1.38;;
36827;SDS011;22766;48.042;11.192;2023-04-03T15:25:09;2.13;;;0.90;;
36827;SDS011;22766;48.042;11.192;2023-04-03T15:27:36;3.17;;;1.33;;
36827;SDS011;22766;48.042;11.192;2023-04-03T15:30:04;2.90;;;1.00;;
36827;SDS011;22766;48.042;11.192;2023-04-03T15:32:33;2.42;;;0.70;;
36827;SDS011;22766;48.042;11.192;2023-04-03T15:35:01;2.60;;;0.70;;
36827;SDS011;22766;48.042;11.192;2023-04-03T15:37:28;1.42;;;0.80;;
36827;SDS011;22766;48.042;11.192;2023-04-03T15:39:55;2.63;;;0.80;;
36827;SDS011;22766;48.042;11.192;2023-04-03T15:42:21;3.63;;;1.00;;
36827;SDS011;22766;48.042;11.192;2023-04-03T15:44:48;2.83;;;1.13;;
36827;SDS011;22766;48.042;11.192;2023-04-03T15:47:15;3.35;;;1.23;;
36827;SDS011;22766;48.042;11.192;2023-04-03T15:49:42;2.63;;;0.93;;
36827;SDS011;22766;48.042;11.192;2023-04-03T15:52:09;1.30;;;0.90;;
36827;SDS011;22766;48.042;11.192;2023-04-03T15:54:36;1.90;;;0.80;;
36827;SDS011;22766;48.042;11.192;2023-04-03T15:57:02;2.90;;;0.80;;
36827;SDS011;22766;48.042;11.192;2023-04-03T15:59:29;2.33;;;0.98;;
36827;SDS011;22766;48.042;11.192;2023-04-03T16:01:58;2.58;;;0.60;;
36827;SDS011;22766;48.042;11.192;2023-04-03T16:04:27;1.15;;;0.55;;
36827;SDS011;22766;48.042;11.192;2023-04-03T16:06:55;2.17;;;0.80;;
36827;SDS011;22766;48.042;11.192;2023-04-03T16:09:21;2.35;;;0.88;;
36827;SDS011;22766;48.042;11.192;2023-04-03T16:11:48;1.27;;;0.50;;
36827;SDS011;22766;48.042;11.192;2023-04-03T16:14:15;1.00;;;0.85;;
36827;SDS011;22766;48.042;11.192;2023-04-03T16:16:41;3.33;;;0.35;;
36827;SDS011;22766;48.042;11.192;2023-04-03T16:19:09;2.58;;;0.63;;
36827;SDS011;22766;48.042;11.192;2023-04-03T16:21:36;0.93;;;0.50;;
36827;SDS011;22766;48.042;11.192;2023-04-03T16:24:03;1.63;;;0.50;;
36827;SDS011;22766;48.042;11.192;2023-04-03T16:26:31;8.85;;;0.57;;
36827;SDS011;22766;48.042;11.192;2023-04-03T16:28:58;1.30;;;0.60;;
36827;SDS011;22766;48.042;11.192;2023-04-03T16:31:25;1.10;;;0.52;;
36827;SDS011;22766;48.042;11.192;2023-04-03T16:33:52;1.25;;;0.60;;
36827;SDS011;22766;48.042;11.192;2023-04-03T16:36:20;0.73;;;0.57;;
36827;SDS011;22766;48.042;11.192;2023-04-03T16:38:47;1.30;;;0.75;;
36827;SDS011;22766;48.042;11.192;2023-04-03T16:41:13;0.90;;;0.60;;
36827;SDS011;22766;48.042;11.192;2023-04-03T16:43:40;1.75;;;0.60;;
36827;SDS011;22766;48.042;11.192;2023-04-03T16:46:08;0.70;;;0.50;;
36827;SDS011;22766;48.042;11.192;2023-04-03T16:48:35;2.13;;;0.90;;
36827;SDS011;22766;48.042;11.192;2023-04-03T16:51:01;1.58;;;0.80;;
36827;SDS011;22766;48.042;11.192;2023-04-03T16:53:29;1.25;;;0.70;;
36827;SDS011;22766;48.042;11.192;2023-04-03T16:55:59;1.00;;;0.50;;
36827;SDS011;22766;48.042;11.192;2023-04-03T16:58:26;1.67;;;0.70;;
36827;SDS011;22766;48.042;11.192;2023-04-03T17:00:53;2.50;;;0.90;;
36827;SDS011;22766;48.042;11.192;2023-04-03T17:03:20;0.88;;;0.50;;
36827;SDS011;22766;48.042;11.192;2023-04-03T17:05:49;1.73;;;0.70;;
36827;SDS011;22766;48.042;11.192;2023-04-03T17:08:16;1.83;;;0.73;;
36827;SDS011;22766;48.042;11.192;2023-04-03T17:10:44;1.45;;;0.70;;
36827;SDS011;22766;48.042;11.192;2023-04-03T17:13:11;0.75;;;0.55;;
36827;SDS011;22766;48.042;11.192;2023-04-03T17:15:37;1.15;;;0.50;;
36827;SDS011;22766;48.042;11.192;2023-04-03T17:18:05;1.08;;;0.70;;